sensor_id;sensor_type;location;lat;lon;timestamp;temperature;humidity
39675;DHT22;27790;50.840;4.386;2022-07-11T00:00:19;19.80;83.40
39675;DHT22;27790;50.840;4.386;2022-07-11T00:02:45;19.80;83.50
39675;DHT22;27790;50.840;4.386;2022-07-11T00:05:11;19.80;83.70
39675;DHT22;27790;50.840;4.386;2022-07-11T00:07:37;19.80;83.90
39675;DHT22;27790;50.840;4.386;2022-07-11T00:10:04;19.70;83.90
39675;DHT22;27790;50.840;4.386;2022-07-11T00:12:29;19.70;84.00
39675;DHT22;27790;50.840;4.386;2022-07-11T00:14:56;19.70;84.20
39675;DHT22;27790;50.840;4.386;2022-07-11T00:17:22;19.70;84.40
39675;DHT22;27790;50.840;4.386;2022-07-11T00:19:48;19.70;84.40
39675;DHT22;27790;50.840;4.386;2022-07-11T00:22:14;19.70;84.50
39675;DHT22;27790;50.840;4.386;2022-07-11T00:24:39;19.70;84.60
39675;DHT22;27790;50.840;4.386;2022-07-11T00:27:05;19.70;84.90
39675;DHT22;27790;50.840;4.386;2022-07-11T00:29:32;19.60;85.10
39675;DHT22;27790;50.840;4.386;2022-07-11T00:31:58;19.60;85.10
39675;DHT22;27790;50.840;4.386;2022-07-11T00:34:24;19.60;85.20
39675;DHT22;27790;50.840;4.386;2022-07-11T00:36:50;19.60;85.40
39675;DHT22;27790;50.840;4.386;2022-07-11T00:39:16;19.50;85.70
39675;DHT22;27790;50.840;4.386;2022-07-11T00:41:41;19.50;86.10
39675;DHT22;27790;50.840;4.386;2022-07-11T00:44:07;19.50;86.10
39675;DHT22;27790;50.840;4.386;2022-07-11T00:46:33;19.60;86.00
39675;DHT22;27790;50.840;4.386;2022-07-11T00:48:59;19.50;86.30
39675;DHT22;27790;50.840;4.386;2022-07-11T00:51:26;19.50;86.30
39675;DHT22;27790;50.840;4.386;2022-07-11T00:53:56;19.50;86.30
39675;DHT22;27790;50.840;4.386;2022-07-11T00:56:25;19.50;86.40
39675;DHT22;27790;50.840;4.386;2022-07-11T00:58:51;19.50;86.60
39675;DHT22;27790;50.840;4.386;2022-07-11T01:01:18;19.50;86.60
39675;DHT22;27790;50.840;4.386;2022-07-11T01:03:44;19.40;86.50
39675;DHT22;27790;50.840;4.386;2022-07-11T01:06:11;19.40;86.70
39675;DHT22;27790;50.840;4.386;2022-07-11T01:08:40;19.50;86.80
39675;DHT22;27790;50.840;4.386;2022-07-11T01:11:08;19.40;86.80
39675;DHT22;27790;50.840;4.386;2022-07-11T01:13:38;19.40;86.90
39675;DHT22;27790;50.840;4.386;2022-07-11T01:16:17;19.40;87.00
39675;DHT22;27790;50.840;4.386;2022-07-11T01:18:44;19.40;86.90
39675;DHT22;27790;50.840;4.386;2022-07-11T01:23:55;19.30;87.20
39675;DHT22;27790;50.840;4.386;2022-07-11T01:26:22;19.30;87.30
39675;DHT22;27790;50.840;4.386;2022-07-11T01:28:49;19.30;87.40
39675;DHT22;27790;50.840;4.386;2022-07-11T01:31:14;19.30;87.60
39675;DHT22;27790;50.840;4.386;2022-07-11T01:33:40;19.30;87.60
39675;DHT22;27790;50.840;4.386;2022-07-11T01:36:06;19.30;87.60
39675;DHT22;27790;50.840;4.386;2022-07-11T01:38:32;19.30;87.80
39675;DHT22;27790;50.840;4.386;2022-07-11T01:40:58;19.30;87.90
39675;DHT22;27790;50.840;4.386;2022-07-11T01:43:23;19.20;87.80
39675;DHT22;27790;50.840;4.386;2022-07-11T01:45:51;19.20;88.10
39675;DHT22;27790;50.840;4.386;2022-07-11T01:48:17;19.20;88.30
39675;DHT22;27790;50.840;4.386;2022-07-11T01:50:43;19.20;88.30
39675;DHT22;27790;50.840;4.386;2022-07-11T01:53:08;19.20;88.30
39675;DHT22;27790;50.840;4.386;2022-07-11T01:55:34;19.20;88.30
39675;DHT22;27790;50.840;4.386;2022-07-11T01:58:00;19.20;88.30
39675;DHT22;27790;50.840;4.386;2022-07-11T02:00:25;19.10;88.30
39675;DHT22;27790;50.840;4.386;2022-07-11T02:02:51;19.10;88.40
39675;DHT22;27790;50.840;4.386;2022-07-11T02:05:16;19.10;88.50
39675;DHT22;27790;50.840;4.386;2022-07-11T02:07:42;19.10;88.70
39675;DHT22;27790;50.840;4.386;2022-07-11T02:10:18;19.10;88.80
39675;DHT22;27790;50.840;4.386;2022-07-11T02:12:44;19.00;88.80
39675;DHT22;27790;50.840;4.386;2022-07-11T02:15:10;19.10;89.10
39675;DHT22;27790;50.840;4.386;2022-07-11T02:17:35;19.00;89.00
39675;DHT22;27790;50.840;4.386;2022-07-11T02:20:01;19.00;89.20
39675;DHT22;27790;50.840;4.386;2022-07-11T02:22:27;19.00;89.20
39675;DHT22;27790;50.840;4.386;2022-07-11T02:24:54;19.00;89.20
39675;DHT22;27790;50.840;4.386;2022-07-11T02:27:19;18.90;89.50
39675;DHT22;27790;50.840;4.386;2022-07-11T02:29:45;18.90;89.70
39675;DHT22;27790;50.840;4.386;2022-07-11T02:32:10;18.90;89.80
39675;DHT22;27790;50.840;4.386;2022-07-11T02:34:36;18.90;89.70
39675;DHT22;27790;50.840;4.386;2022-07-11T02:37:02;18.90;89.40
39675;DHT22;27790;50.840;4.386;2022-07-11T02:39:28;18.90;89.50
39675;DHT22;27790;50.840;4.386;2022-07-11T02:41:53;18.90;89.60
39675;DHT22;27790;50.840;4.386;2022-07-11T02:44:19;18.90;89.60
39675;DHT22;27790;50.840;4.386;2022-07-11T02:46:45;18.90;89.80
39675;DHT22;27790;50.840;4.386;2022-07-11T02:49:11;18.90;89.80
39675;DHT22;27790;50.840;4.386;2022-07-11T02:51:36;18.80;89.70
39675;DHT22;27790;50.840;4.386;2022-07-11T02:54:02;18.80;89.70
39675;DHT22;27790;50.840;4.386;2022-07-11T02:56:27;18.80;89.70
39675;DHT22;27790;50.840;4.386;2022-07-11T02:58:53;18.90;89.80
39675;DHT22;27790;50.840;4.386;2022-07-11T03:01:18;18.80;90.00
39675;DHT22;27790;50.840;4.386;2022-07-11T03:03:45;18.80;90.00
39675;DHT22;27790;50.840;4.386;2022-07-11T03:06:11;18.80;90.10
39675;DHT22;27790;50.840;4.386;2022-07-11T03:08:37;18.70;90.20
39675;DHT22;27790;50.840;4.386;2022-07-11T03:11:02;18.70;90.20
39675;DHT22;27790;50.840;4.386;2022-07-11T03:13:28;18.70;90.20
39675;DHT22;27790;50.840;4.386;2022-07-11T03:15:54;18.70;90.30
39675;DHT22;27790;50.840;4.386;2022-07-11T03:18:19;18.70;90.30
39675;DHT22;27790;50.840;4.386;2022-07-11T03:20:45;18.70;90.30
39675;DHT22;27790;50.840;4.386;2022-07-11T03:23:11;18.70;90.30
39675;DHT22;27790;50.840;4.386;2022-07-11T03:25:36;18.60;90.20
39675;DHT22;27790;50.840;4.386;2022-07-11T03:28:02;18.60;90.30
39675;DHT22;27790;50.840;4.386;2022-07-11T03:30:28;18.60;90.40
39675;DHT22;27790;50.840;4.386;2022-07-11T03:32:55;18.60;90.40
39675;DHT22;27790;50.840;4.386;2022-07-11T03:35:21;18.60;90.40
39675;DHT22;27790;50.840;4.386;2022-07-11T03:37:57;18.60;90.40
39675;DHT22;27790;50.840;4.386;2022-07-11T03:40:23;18.60;90.30
39675;DHT22;27790;50.840;4.386;2022-07-11T03:42:48;18.70;90.30
39675;DHT22;27790;50.840;4.386;2022-07-11T03:45:14;18.60;90.20
39675;DHT22;27790;50.840;4.386;2022-07-11T03:47:40;18.60;90.30
39675;DHT22;27790;50.840;4.386;2022-07-11T03:50:05;18.60;90.30
39675;DHT22;27790;50.840;4.386;2022-07-11T03:52:32;18.60;90.40
39675;DHT22;27790;50.840;4.386;2022-07-11T03:54:58;18.60;90.40
39675;DHT22;27790;50.840;4.386;2022-07-11T03:57:23;18.60;90.50
39675;DHT22;27790;50.840;4.386;2022-07-11T03:59:49;18.70;90.50
39675;DHT22;27790;50.840;4.386;2022-07-11T04:02:14;18.70;90.50
39675;DHT22;27790;50.840;4.386;2022-07-11T04:04:40;18.70;90.60
39675;DHT22;27790;50.840;4.386;2022-07-11T04:07:05;18.70;90.60
39675;DHT22;27790;50.840;4.386;2022-07-11T04:09:31;18.80;90.60
39675;DHT22;27790;50.840;4.386;2022-07-11T04:11:56;18.80;90.50
39675;DHT22;27790;50.840;4.386;2022-07-11T04:14:22;18.80;90.40
39675;DHT22;27790;50.840;4.386;2022-07-11T04:16:48;18.80;90.50
39675;DHT22;27790;50.840;4.386;2022-07-11T04:19:13;18.80;90.50
39675;DHT22;27790;50.840;4.386;2022-07-11T04:21:39;18.90;90.60
39675;DHT22;27790;50.840;4.386;2022-07-11T04:24:04;18.90;90.50
39675;DHT22;27790;50.840;4.386;2022-07-11T04:26:30;19.00;90.50
39675;DHT22;27790;50.840;4.386;2022-07-11T04:28:55;19.30;90.10
39675;DHT22;27790;50.840;4.386;2022-07-11T04:31:21;19.80;88.70
39675;DHT22;27790;50.840;4.386;2022-07-11T04:33:47;20.10;87.40
39675;DHT22;27790;50.840;4.386;2022-07-11T04:36:12;20.50;86.20
39675;DHT22;27790;50.840;4.386;2022-07-11T04:38:38;20.90;84.70
39675;DHT22;27790;50.840;4.386;2022-07-11T04:41:03;21.10;83.20
39675;DHT22;27790;50.840;4.386;2022-07-11T04:43:29;21.40;82.00
39675;DHT22;27790;50.840;4.386;2022-07-11T04:45:55;21.50;81.40
39675;DHT22;27790;50.840;4.386;2022-07-11T04:48:20;21.40;81.50
39675;DHT22;27790;50.840;4.386;2022-07-11T04:50:46;21.40;81.80
39675;DHT22;27790;50.840;4.386;2022-07-11T04:53:12;21.90;80.50
39675;DHT22;27790;50.840;4.386;2022-07-11T04:55:38;22.50;79.10
39675;DHT22;27790;50.840;4.386;2022-07-11T04:58:07;22.80;77.40
39675;DHT22;27790;50.840;4.386;2022-07-11T05:00:34;22.80;77.90
39675;DHT22;27790;50.840;4.386;2022-07-11T05:02:59;23.30;75.70
39675;DHT22;27790;50.840;4.386;2022-07-11T05:05:25;23.80;74.10
39675;DHT22;27790;50.840;4.386;2022-07-11T05:07:51;24.00;73.30
39675;DHT22;27790;50.840;4.386;2022-07-11T05:10:16;24.20;72.80
39675;DHT22;27790;50.840;4.386;2022-07-11T05:12:42;24.60;71.50
39675;DHT22;27790;50.840;4.386;2022-07-11T05:15:10;24.70;70.80
39675;DHT22;27790;50.840;4.386;2022-07-11T05:17:36;24.80;70.60
39675;DHT22;27790;50.840;4.386;2022-07-11T05:20:02;24.60;70.80
39675;DHT22;27790;50.840;4.386;2022-07-11T05:22:28;24.60;71.00
39675;DHT22;27790;50.840;4.386;2022-07-11T05:24:54;24.90;70.20
39675;DHT22;27790;50.840;4.386;2022-07-11T05:27:19;25.00;69.60
39675;DHT22;27790;50.840;4.386;2022-07-11T05:29:45;25.10;69.10
39675;DHT22;27790;50.840;4.386;2022-07-11T05:32:10;25.10;68.90
39675;DHT22;27790;50.840;4.386;2022-07-11T05:34:36;25.10;69.10
39675;DHT22;27790;50.840;4.386;2022-07-11T05:37:02;25.20;68.70
39675;DHT22;27790;50.840;4.386;2022-07-11T05:39:28;25.20;68.60
39675;DHT22;27790;50.840;4.386;2022-07-11T05:41:54;24.80;69.50
39675;DHT22;27790;50.840;4.386;2022-07-11T05:44:19;24.00;71.50
39675;DHT22;27790;50.840;4.386;2022-07-11T05:46:45;23.60;73.30
39675;DHT22;27790;50.840;4.386;2022-07-11T05:49:11;23.50;74.00
39675;DHT22;27790;50.840;4.386;2022-07-11T05:51:38;23.40;74.00
39675;DHT22;27790;50.840;4.386;2022-07-11T05:54:04;23.40;74.20
39675;DHT22;27790;50.840;4.386;2022-07-11T05:56:29;23.20;74.70
39675;DHT22;27790;50.840;4.386;2022-07-11T05:58:56;22.80;76.00
39675;DHT22;27790;50.840;4.386;2022-07-11T06:01:22;22.50;77.80
39675;DHT22;27790;50.840;4.386;2022-07-11T06:03:48;22.50;77.80
39675;DHT22;27790;50.840;4.386;2022-07-11T06:06:14;22.50;77.80
39675;DHT22;27790;50.840;4.386;2022-07-11T06:08:40;22.40;77.80
39675;DHT22;27790;50.840;4.386;2022-07-11T06:11:07;22.20;78.40
39675;DHT22;27790;50.840;4.386;2022-07-11T06:13:32;22.10;78.70
39675;DHT22;27790;50.840;4.386;2022-07-11T06:15:58;22.00;79.10
39675;DHT22;27790;50.840;4.386;2022-07-11T06:18:24;22.10;79.00
39675;DHT22;27790;50.840;4.386;2022-07-11T06:20:50;22.30;78.40
39675;DHT22;27790;50.840;4.386;2022-07-11T06:23:16;22.80;77.00
39675;DHT22;27790;50.840;4.386;2022-07-11T06:25:41;23.70;75.20
39675;DHT22;27790;50.840;4.386;2022-07-11T06:28:07;24.60;71.40
39675;DHT22;27790;50.840;4.386;2022-07-11T06:30:33;25.00;69.70
39675;DHT22;27790;50.840;4.386;2022-07-11T06:32:58;25.20;69.30
39675;DHT22;27790;50.840;4.386;2022-07-11T06:35:24;25.80;68.80
39675;DHT22;27790;50.840;4.386;2022-07-11T06:37:50;26.40;66.60
39675;DHT22;27790;50.840;4.386;2022-07-11T06:40:15;26.80;64.80
39675;DHT22;27790;50.840;4.386;2022-07-11T06:42:43;27.10;64.10
39675;DHT22;27790;50.840;4.386;2022-07-11T06:45:09;27.10;63.20
39675;DHT22;27790;50.840;4.386;2022-07-11T06:47:34;27.20;63.00
39675;DHT22;27790;50.840;4.386;2022-07-11T06:50:00;27.20;62.70
39675;DHT22;27790;50.840;4.386;2022-07-11T06:52:26;27.50;62.60
39675;DHT22;27790;50.840;4.386;2022-07-11T06:54:52;27.80;62.70
39675;DHT22;27790;50.840;4.386;2022-07-11T06:57:17;28.00;61.40
39675;DHT22;27790;50.840;4.386;2022-07-11T06:59:43;28.00;61.60
39675;DHT22;27790;50.840;4.386;2022-07-11T07:02:08;28.20;60.90
39675;DHT22;27790;50.840;4.386;2022-07-11T07:04:34;28.40;60.60
39675;DHT22;27790;50.840;4.386;2022-07-11T07:07:00;28.50;59.90
39675;DHT22;27790;50.840;4.386;2022-07-11T07:09:27;28.30;60.10
39675;DHT22;27790;50.840;4.386;2022-07-11T07:11:53;28.30;60.10
39675;DHT22;27790;50.840;4.386;2022-07-11T07:14:20;28.40;60.10
39675;DHT22;27790;50.840;4.386;2022-07-11T07:16:46;28.90;59.70
39675;DHT22;27790;50.840;4.386;2022-07-11T07:19:12;29.10;59.10
39675;DHT22;27790;50.840;4.386;2022-07-11T07:21:38;29.10;59.70
39675;DHT22;27790;50.840;4.386;2022-07-11T07:24:03;29.20;58.70
39675;DHT22;27790;50.840;4.386;2022-07-11T07:26:29;29.30;58.50
39675;DHT22;27790;50.840;4.386;2022-07-11T07:28:55;29.50;58.10
39675;DHT22;27790;50.840;4.386;2022-07-11T07:31:20;29.70;57.60
39675;DHT22;27790;50.840;4.386;2022-07-11T07:33:46;29.70;57.60
39675;DHT22;27790;50.840;4.386;2022-07-11T07:36:12;29.50;57.80
39675;DHT22;27790;50.840;4.386;2022-07-11T07:38:38;29.30;58.80
39675;DHT22;27790;50.840;4.386;2022-07-11T07:41:04;29.00;58.90
39675;DHT22;27790;50.840;4.386;2022-07-11T07:43:30;29.20;59.20
39675;DHT22;27790;50.840;4.386;2022-07-11T07:45:55;29.40;58.40
39675;DHT22;27790;50.840;4.386;2022-07-11T07:48:21;29.30;58.30
39675;DHT22;27790;50.840;4.386;2022-07-11T07:50:46;29.50;57.80
39675;DHT22;27790;50.840;4.386;2022-07-11T07:53:12;29.70;57.50
39675;DHT22;27790;50.840;4.386;2022-07-11T07:55:37;29.60;58.40
39675;DHT22;27790;50.840;4.386;2022-07-11T07:58:03;29.70;57.40
39675;DHT22;27790;50.840;4.386;2022-07-11T08:00:29;29.30;58.00
39675;DHT22;27790;50.840;4.386;2022-07-11T08:03:08;28.90;58.80
39675;DHT22;27790;50.840;4.386;2022-07-11T08:05:34;28.70;59.70
39675;DHT22;27790;50.840;4.386;2022-07-11T08:08:00;28.70;60.00
39675;DHT22;27790;50.840;4.386;2022-07-11T08:10:26;29.00;60.00
39675;DHT22;27790;50.840;4.386;2022-07-11T08:12:51;29.10;59.40
39675;DHT22;27790;50.840;4.386;2022-07-11T08:15:17;29.10;59.60
39675;DHT22;27790;50.840;4.386;2022-07-11T08:17:43;29.10;59.20
39675;DHT22;27790;50.840;4.386;2022-07-11T08:20:09;29.20;59.10
39675;DHT22;27790;50.840;4.386;2022-07-11T08:22:34;29.10;58.30
39675;DHT22;27790;50.840;4.386;2022-07-11T08:25:00;29.30;58.30
39675;DHT22;27790;50.840;4.386;2022-07-11T08:27:28;28.90;58.40
39675;DHT22;27790;50.840;4.386;2022-07-11T08:29:53;28.70;58.80
39675;DHT22;27790;50.840;4.386;2022-07-11T08:32:19;28.90;59.30
39675;DHT22;27790;50.840;4.386;2022-07-11T08:34:45;29.20;58.50
39675;DHT22;27790;50.840;4.386;2022-07-11T08:37:11;29.50;58.10
39675;DHT22;27790;50.840;4.386;2022-07-11T08:39:37;30.00;57.20
39675;DHT22;27790;50.840;4.386;2022-07-11T08:42:03;30.00;56.70
39675;DHT22;27790;50.840;4.386;2022-07-11T08:44:28;30.00;57.00
39675;DHT22;27790;50.840;4.386;2022-07-11T08:46:54;30.50;56.20
39675;DHT22;27790;50.840;4.386;2022-07-11T08:49:22;30.70;55.40
39675;DHT22;27790;50.840;4.386;2022-07-11T08:51:48;30.90;54.70
39675;DHT22;27790;50.840;4.386;2022-07-11T08:54:14;30.80;54.70
39675;DHT22;27790;50.840;4.386;2022-07-11T08:56:41;31.20;54.70
39675;DHT22;27790;50.840;4.386;2022-07-11T08:59:09;31.40;53.70
39675;DHT22;27790;50.840;4.386;2022-07-11T09:01:37;31.30;53.40
39675;DHT22;27790;50.840;4.386;2022-07-11T09:04:07;31.20;53.70
39675;DHT22;27790;50.840;4.386;2022-07-11T09:06:33;31.20;54.30
39675;DHT22;27790;50.840;4.386;2022-07-11T09:08:59;31.00;54.00
39675;DHT22;27790;50.840;4.386;2022-07-11T09:11:26;31.20;53.70
39675;DHT22;27790;50.840;4.386;2022-07-11T09:13:52;31.60;53.10
39675;DHT22;27790;50.840;4.386;2022-07-11T09:16:17;31.60;53.20
39675;DHT22;27790;50.840;4.386;2022-07-11T09:18:44;31.80;52.60
39675;DHT22;27790;50.840;4.386;2022-07-11T09:21:12;31.80;52.60
39675;DHT22;27790;50.840;4.386;2022-07-11T09:23:49;31.90;52.90
39675;DHT22;27790;50.840;4.386;2022-07-11T09:26:32;32.00;52.40
39675;DHT22;27790;50.840;4.386;2022-07-11T09:29:06;31.50;53.30
39675;DHT22;27790;50.840;4.386;2022-07-11T09:31:33;31.60;53.40
39675;DHT22;27790;50.840;4.386;2022-07-11T09:34:01;31.10;53.70
39675;DHT22;27790;50.840;4.386;2022-07-11T09:39:01;30.00;55.90
39675;DHT22;27790;50.840;4.386;2022-07-11T09:41:31;29.90;55.90
39675;DHT22;27790;50.840;4.386;2022-07-11T09:44:12;29.60;56.20
39675;DHT22;27790;50.840;4.386;2022-07-11T09:46:38;29.70;56.80
39675;DHT22;27790;50.840;4.386;2022-07-11T09:49:05;30.20;58.00
39675;DHT22;27790;50.840;4.386;2022-07-11T09:51:36;30.60;55.30
39675;DHT22;27790;50.840;4.386;2022-07-11T09:54:02;29.70;56.10
39675;DHT22;27790;50.840;4.386;2022-07-11T09:56:42;29.20;57.40
39675;DHT22;27790;50.840;4.386;2022-07-11T09:59:12;29.40;57.90
39675;DHT22;27790;50.840;4.386;2022-07-11T10:01:41;28.80;58.20
39675;DHT22;27790;50.840;4.386;2022-07-11T10:04:07;28.30;60.70
39675;DHT22;27790;50.840;4.386;2022-07-11T10:06:35;27.90;61.40
39675;DHT22;27790;50.840;4.386;2022-07-11T10:09:00;27.50;61.30
39675;DHT22;27790;50.840;4.386;2022-07-11T10:11:27;27.10;62.80
39675;DHT22;27790;50.840;4.386;2022-07-11T10:13:54;26.70;63.40
39675;DHT22;27790;50.840;4.386;2022-07-11T10:16:21;26.40;64.10
39675;DHT22;27790;50.840;4.386;2022-07-11T10:19:04;26.20;65.30
39675;DHT22;27790;50.840;4.386;2022-07-11T10:30:03;26.10;66.00
39675;DHT22;27790;50.840;4.386;2022-07-11T10:32:29;26.00;66.40
39675;DHT22;27790;50.840;4.386;2022-07-11T10:35:08;26.00;66.10
39675;DHT22;27790;50.840;4.386;2022-07-11T10:37:50;26.00;67.10
39675;DHT22;27790;50.840;4.386;2022-07-11T10:43:32;25.70;67.10
39675;DHT22;27790;50.840;4.386;2022-07-11T10:51:22;25.70;67.30
39675;DHT22;27790;50.840;4.386;2022-07-11T10:53:51;25.50;67.70
39675;DHT22;27790;50.840;4.386;2022-07-11T10:59:15;25.80;67.00
39675;DHT22;27790;50.840;4.386;2022-07-11T11:10:01;25.50;67.50
39675;DHT22;27790;50.840;4.386;2022-07-11T11:15:33;25.80;66.60
39675;DHT22;27790;50.840;4.386;2022-07-11T11:23:41;26.20;66.20
39675;DHT22;27790;50.840;4.386;2022-07-11T11:26:15;26.10;65.80
39675;DHT22;27790;50.840;4.386;2022-07-11T11:31:20;26.20;66.30
39675;DHT22;27790;50.840;4.386;2022-07-11T11:33:46;26.20;66.00
39675;DHT22;27790;50.840;4.386;2022-07-11T11:36:16;26.20;66.20
39675;DHT22;27790;50.840;4.386;2022-07-11T11:38:43;26.10;66.90
39675;DHT22;27790;50.840;4.386;2022-07-11T11:41:08;26.10;66.70
39675;DHT22;27790;50.840;4.386;2022-07-11T11:43:35;26.00;66.30
39675;DHT22;27790;50.840;4.386;2022-07-11T11:46:01;26.20;66.90
39675;DHT22;27790;50.840;4.386;2022-07-11T11:48:30;26.50;66.20
39675;DHT22;27790;50.840;4.386;2022-07-11T11:51:08;26.60;65.20
39675;DHT22;27790;50.840;4.386;2022-07-11T11:53:46;26.50;65.70
39675;DHT22;27790;50.840;4.386;2022-07-11T11:56:28;26.50;65.80
39675;DHT22;27790;50.840;4.386;2022-07-11T11:58:57;26.20;66.00
39675;DHT22;27790;50.840;4.386;2022-07-11T12:01:27;26.10;67.50
39675;DHT22;27790;50.840;4.386;2022-07-11T12:03:57;26.10;67.90
39675;DHT22;27790;50.840;4.386;2022-07-11T12:06:24;26.10;67.50
39675;DHT22;27790;50.840;4.386;2022-07-11T12:08:51;26.10;68.00
39675;DHT22;27790;50.840;4.386;2022-07-11T12:11:17;26.10;67.80
39675;DHT22;27790;50.840;4.386;2022-07-11T12:13:43;26.00;67.90
39675;DHT22;27790;50.840;4.386;2022-07-11T12:16:14;25.90;69.00
39675;DHT22;27790;50.840;4.386;2022-07-11T12:18:52;25.90;67.30
39675;DHT22;27790;50.840;4.386;2022-07-11T12:21:18;25.80;68.20
39675;DHT22;27790;50.840;4.386;2022-07-11T12:23:44;25.70;69.20
39675;DHT22;27790;50.840;4.386;2022-07-11T12:26:10;25.70;68.30
39675;DHT22;27790;50.840;4.386;2022-07-11T12:31:47;25.70;66.50
39675;DHT22;27790;50.840;4.386;2022-07-11T12:34:14;25.50;67.20
39675;DHT22;27790;50.840;4.386;2022-07-11T12:36:41;25.40;66.30
39675;DHT22;27790;50.840;4.386;2022-07-11T12:39:06;25.50;66.60
39675;DHT22;27790;50.840;4.386;2022-07-11T12:41:32;25.60;66.30
39675;DHT22;27790;50.840;4.386;2022-07-11T12:43:58;25.80;65.20
39675;DHT22;27790;50.840;4.386;2022-07-11T12:46:34;25.90;63.40
39675;DHT22;27790;50.840;4.386;2022-07-11T12:49:03;26.10;65.10
39675;DHT22;27790;50.840;4.386;2022-07-11T12:51:32;26.40;65.70
39675;DHT22;27790;50.840;4.386;2022-07-11T12:54:20;26.40;63.50
39675;DHT22;27790;50.840;4.386;2022-07-11T12:56:55;26.20;63.30
39675;DHT22;27790;50.840;4.386;2022-07-11T12:59:25;26.10;62.60
39675;DHT22;27790;50.840;4.386;2022-07-11T13:02:00;26.00;62.80
39675;DHT22;27790;50.840;4.386;2022-07-11T13:04:31;25.90;62.90
39675;DHT22;27790;50.840;4.386;2022-07-11T13:06:56;26.00;62.70
39675;DHT22;27790;50.840;4.386;2022-07-11T13:09:33;26.00;62.80
39675;DHT22;27790;50.840;4.386;2022-07-11T13:11:58;25.90;61.70
39675;DHT22;27790;50.840;4.386;2022-07-11T13:14:24;25.90;60.60
39675;DHT22;27790;50.840;4.386;2022-07-11T13:17:01;25.90;60.20
39675;DHT22;27790;50.840;4.386;2022-07-11T13:19:26;26.00;60.00
39675;DHT22;27790;50.840;4.386;2022-07-11T13:21:52;26.00;60.30
39675;DHT22;27790;50.840;4.386;2022-07-11T13:24:17;26.10;60.50
39675;DHT22;27790;50.840;4.386;2022-07-11T13:26:43;26.20;60.10
39675;DHT22;27790;50.840;4.386;2022-07-11T13:29:08;26.30;60.90
39675;DHT22;27790;50.840;4.386;2022-07-11T13:31:34;26.40;62.30
39675;DHT22;27790;50.840;4.386;2022-07-11T13:34:00;26.40;62.70
39675;DHT22;27790;50.840;4.386;2022-07-11T13:36:25;26.50;62.60
39675;DHT22;27790;50.840;4.386;2022-07-11T13:38:51;26.60;62.60
39675;DHT22;27790;50.840;4.386;2022-07-11T13:41:18;26.50;61.50
39675;DHT22;27790;50.840;4.386;2022-07-11T13:43:44;26.50;62.70
39675;DHT22;27790;50.840;4.386;2022-07-11T13:46:09;26.50;61.70
39675;DHT22;27790;50.840;4.386;2022-07-11T13:48:35;26.50;62.50
39675;DHT22;27790;50.840;4.386;2022-07-11T13:51:01;26.50;62.20
39675;DHT22;27790;50.840;4.386;2022-07-11T13:53:26;26.40;61.90
39675;DHT22;27790;50.840;4.386;2022-07-11T13:55:52;26.50;62.10
39675;DHT22;27790;50.840;4.386;2022-07-11T13:58:19;26.40;61.80
39675;DHT22;27790;50.840;4.386;2022-07-11T14:00:51;26.50;61.60
39675;DHT22;27790;50.840;4.386;2022-07-11T14:03:17;26.50;61.80
39675;DHT22;27790;50.840;4.386;2022-07-11T14:05:42;26.40;62.30
39675;DHT22;27790;50.840;4.386;2022-07-11T14:08:08;26.30;62.60
39675;DHT22;27790;50.840;4.386;2022-07-11T14:10:34;26.40;63.00
39675;DHT22;27790;50.840;4.386;2022-07-11T14:13:00;26.40;62.70
39675;DHT22;27790;50.840;4.386;2022-07-11T14:15:25;26.60;64.20
39675;DHT22;27790;50.840;4.386;2022-07-11T14:17:51;26.70;62.60
39675;DHT22;27790;50.840;4.386;2022-07-11T14:20:17;26.90;62.50
39675;DHT22;27790;50.840;4.386;2022-07-11T14:22:42;26.90;61.50
39675;DHT22;27790;50.840;4.386;2022-07-11T14:25:08;26.90;61.90
39675;DHT22;27790;50.840;4.386;2022-07-11T14:27:35;26.90;61.90
39675;DHT22;27790;50.840;4.386;2022-07-11T14:30:06;26.80;61.90
39675;DHT22;27790;50.840;4.386;2022-07-11T14:32:36;26.60;62.80
39675;DHT22;27790;50.840;4.386;2022-07-11T14:35:01;26.40;63.40
39675;DHT22;27790;50.840;4.386;2022-07-11T14:37:27;26.30;63.90
39675;DHT22;27790;50.840;4.386;2022-07-11T14:39:53;26.30;63.60
39675;DHT22;27790;50.840;4.386;2022-07-11T14:42:18;26.20;64.20
39675;DHT22;27790;50.840;4.386;2022-07-11T14:44:44;26.20;64.50
39675;DHT22;27790;50.840;4.386;2022-07-11T14:47:09;26.20;64.60
39675;DHT22;27790;50.840;4.386;2022-07-11T14:49:35;26.30;64.30
39675;DHT22;27790;50.840;4.386;2022-07-11T14:52:01;26.30;64.10
39675;DHT22;27790;50.840;4.386;2022-07-11T14:54:27;26.20;63.70
39675;DHT22;27790;50.840;4.386;2022-07-11T14:56:52;26.20;64.80
39675;DHT22;27790;50.840;4.386;2022-07-11T14:59:18;26.20;63.20
39675;DHT22;27790;50.840;4.386;2022-07-11T15:01:44;26.20;63.50
39675;DHT22;27790;50.840;4.386;2022-07-11T15:04:09;26.10;63.50
39675;DHT22;27790;50.840;4.386;2022-07-11T15:06:35;26.10;63.60
39675;DHT22;27790;50.840;4.386;2022-07-11T15:09:11;26.10;63.80
39675;DHT22;27790;50.840;4.386;2022-07-11T15:11:48;26.10;64.30
39675;DHT22;27790;50.840;4.386;2022-07-11T15:14:24;26.10;64.50
39675;DHT22;27790;50.840;4.386;2022-07-11T15:16:50;26.20;63.90
39675;DHT22;27790;50.840;4.386;2022-07-11T15:19:15;26.10;62.50
39675;DHT22;27790;50.840;4.386;2022-07-11T15:21:41;26.20;62.40
39675;DHT22;27790;50.840;4.386;2022-07-11T15:24:07;26.20;62.80
39675;DHT22;27790;50.840;4.386;2022-07-11T15:26:32;26.40;63.70
39675;DHT22;27790;50.840;4.386;2022-07-11T15:28:58;26.50;62.10
39675;DHT22;27790;50.840;4.386;2022-07-11T15:31:23;26.60;62.20
39675;DHT22;27790;50.840;4.386;2022-07-11T15:33:49;26.30;62.90
39675;DHT22;27790;50.840;4.386;2022-07-11T15:36:17;26.20;63.30
39675;DHT22;27790;50.840;4.386;2022-07-11T15:38:43;26.10;63.70
39675;DHT22;27790;50.840;4.386;2022-07-11T15:41:16;26.10;64.20
39675;DHT22;27790;50.840;4.386;2022-07-11T15:43:42;26.20;63.10
39675;DHT22;27790;50.840;4.386;2022-07-11T15:46:08;26.30;62.60
39675;DHT22;27790;50.840;4.386;2022-07-11T15:48:37;26.30;61.80
39675;DHT22;27790;50.840;4.386;2022-07-11T15:51:02;26.20;62.00
39675;DHT22;27790;50.840;4.386;2022-07-11T15:53:28;26.30;62.30
39675;DHT22;27790;50.840;4.386;2022-07-11T15:55:54;26.40;62.20
39675;DHT22;27790;50.840;4.386;2022-07-11T15:58:20;26.40;62.50
39675;DHT22;27790;50.840;4.386;2022-07-11T16:00:47;26.50;62.90
39675;DHT22;27790;50.840;4.386;2022-07-11T16:03:13;26.60;62.60
39675;DHT22;27790;50.840;4.386;2022-07-11T16:05:38;26.60;60.90
39675;DHT22;27790;50.840;4.386;2022-07-11T16:08:04;26.70;61.20
39675;DHT22;27790;50.840;4.386;2022-07-11T16:10:29;26.70;60.30
39675;DHT22;27790;50.840;4.386;2022-07-11T16:12:55;26.80;60.60
39675;DHT22;27790;50.840;4.386;2022-07-11T16:15:21;26.80;61.40